Time;durP1;ratioP1;P1;durP2;ratioP2;P2;SDS_P1;SDS_P2;PMS_P1;PMS_P2;Temp;Humidity;BMP_temperature;BMP_pressure;BME280_temperature;BME280_humidity;BME280_pressure;Samples;Min_cycle;Max_cycle;Signal;HPM_P1;HPM_P2
2022/11/09 00:00:01;;;;;;;;;;;11.40;99.90;;;;;;5108076;27;994;-68
2022/11/09 00:02:26;;;;;;;;;;;11.60;99.90;;;;;;5109048;27;1082;-68
2022/11/09 00:04:52;;;;;;;;;;;11.70;99.90;;;;;;5101309;27;1331;-68
2022/11/09 00:07:17;;;;;;;;;;;11.70;99.90;;;;;;5102911;27;1055;-67
2022/11/09 00:09:43;;;;;;;;;;;11.60;99.90;;;;;;5106098;27;1832;-68
2022/11/09 00:12:09;;;;;;;;;;;11.60;99.90;;;;;;5102653;27;1244;-68
2022/11/09 00:14:35;;;;;;;;;;;11.50;99.90;;;;;;5104903;27;1071;-68
2022/11/09 00:17:01;;;;;;;;;;;11.40;99.90;;;;;;5102341;27;1221;-68
2022/11/09 00:19:26;;;;;;;;;;;11.40;99.90;;;;;;5102450;27;1914;-68
2022/11/09 00:21:52;;;;;;;;;;;11.30;99.90;;;;;;5102948;27;1082;-68
2022/11/09 00:24:18;;;;;;;;;;;11.40;99.90;;;;;;5105116;27;1044;-68
2022/11/09 00:26:43;;;;;;;;;;;11.40;99.90;;;;;;5099569;28;1344;-68
2022/11/09 00:29:09;;;;;;;;;;;11.40;99.90;;;;;;5097285;28;977;-68
2022/11/09 00:31:35;;;;;;;;;;;11.30;99.90;;;;;;5107443;27;1268;-68
2022/11/09 00:34:00;;;;;;;;;;;11.30;99.90;;;;;;5108082;27;977;-68
2022/11/09 00:36:27;;;;;;;;;;;11.30;99.90;;;;;;5101316;28;957;-68
2022/11/09 00:38:54;;;;;;;;;;;11.30;99.90;;;;;;5103969;27;1906;-68
2022/11/09 00:41:19;;;;;;;;;;;11.30;99.90;;;;;;5105700;28;1012;-68
2022/11/09 00:43:45;;;;;;;;;;;11.30;99.90;;;;;;5082209;28;1317;-68
2022/11/09 00:46:11;;;;;;;;;;;11.30;99.90;;;;;;5099283;28;974;-68
2022/11/09 00:48:37;;;;;;;;;;;11.70;99.90;;;;;;5105209;28;1073;-68
2022/11/09 00:51:03;;;;;;;;;;;11.30;99.90;;;;;;5107596;28;1294;-69
2022/11/09 00:53:29;;;;;;;;;;;11.30;99.90;;;;;;5102073;28;1085;-68
2022/11/09 00:55:58;;;;;;;;;;;11.30;99.90;;;;;;5106643;28;1048;-68
2022/11/09 00:58:24;;;;;;;;;;;11.30;99.90;;;;;;5096562;28;1905;-68
2022/11/09 01:00:50;;;;;;;;;;;11.30;99.90;;;;;;5102294;28;1008;-69
2022/11/09 01:03:16;;;;;;;;;;;11.20;99.90;;;;;;5103621;28;1027;-68
2022/11/09 01:05:42;;;;;;;;;;;11.20;99.90;;;;;;5106654;27;1517;-68
2022/11/09 01:08:09;;;;;;;;;;;11.10;99.90;;;;;;5085716;28;1075;-68
2022/11/09 01:10:34;;;;;;;;;;;11.10;99.90;;;;;;5083931;28;1100;-68
2022/11/09 01:13:00;;;;;;;;;;;11.10;99.90;;;;;;5107459;27;1314;-68
2022/11/09 01:15:26;;;;;;;;;;;11.10;99.90;;;;;;5109054;27;943;-68
2022/11/09 01:17:51;;;;;;;;;;;11.00;99.90;;;;;;5109834;27;1910;-68
2022/11/09 01:20:18;;;;;;;;;;;11.00;99.90;;;;;;5089772;27;1087;-68
2022/11/09 01:22:43;;;;;;;;;;;11.00;99.90;;;;;;5102332;27;1043;-68
2022/11/09 01:25:09;;;;;;;;;;;11.00;99.90;;;;;;5106661;27;1039;-68
2022/11/09 01:27:35;;;;;;;;;;;11.00;99.90;;;;;;5110100;27;969;-68
2022/11/09 01:30:04;;;;;;;;;;;11.00;99.90;;;;;;5101417;27;1347;-69
2022/11/09 01:32:31;;;;;;;;;;;11.10;99.90;;;;;;5099820;28;1009;-68
2022/11/09 01:34:57;;;;;;;;;;;11.20;99.90;;;;;;5106297;27;1004;-68
2022/11/09 01:37:22;;;;;;;;;;;11.20;99.90;;;;;;5108514;27;2003;-68
2022/11/09 01:39:48;;;;;;;;;;;11.30;99.90;;;;;;5107077;27;1027;-68
2022/11/09 01:42:14;;;;;;;;;;;11.30;99.90;;;;;;5111109;27;1228;-68
2022/11/09 01:44:41;;;;;;;;;;;11.40;99.90;;;;;;5106356;27;986;-68
2022/11/09 01:47:12;;;;;;;;;;;11.40;99.90;;;;;;5109411;27;1024;-68
2022/11/09 01:49:39;;;;;;;;;;;11.40;99.90;;;;;;5084779;28;1059;-68
2022/11/09 01:52:11;;;;;;;;;;;11.40;99.90;;;;;;5112839;27;1390;-67
2022/11/09 01:54:40;;;;;;;;;;;11.40;99.90;;;;;;5121032;27;1051;-68
2022/11/09 01:57:09;;;;;;;;;;;11.50;99.90;;;;;;5120964;27;985;-67
2022/11/09 01:59:37;;;;;;;;;;;11.50;99.90;;;;;;5118261;27;1100;-68
2022/11/09 02:02:03;;;;;;;;;;;11.50;99.90;;;;;;5121931;27;1035;-68
2022/11/09 02:04:34;;;;;;;;;;;11.50;99.90;;;;;;5103593;27;1307;-68
2022/11/09 02:06:59;;;;;;;;;;;11.50;99.90;;;;;;5120784;27;992;-67
2022/11/09 02:09:28;;;;;;;;;;;11.50;99.90;;;;;;5120440;27;1035;-68
2022/11/09 02:11:54;;;;;;;;;;;11.50;99.90;;;;;;5120406;27;1325;-67
2022/11/09 02:14:21;;;;;;;;;;;11.50;99.90;;;;;;5100998;27;1096;-67
2022/11/09 02:16:47;;;;;;;;;;;11.50;99.90;;;;;;5119005;27;1307;-68
2022/11/09 02:19:14;;;;;;;;;;;11.50;99.90;;;;;;5119204;27;1971;-67
2022/11/09 02:21:39;;;;;;;;;;;11.50;99.90;;;;;;5120542;27;1001;-67
2022/11/09 02:24:05;;;;;;;;;;;11.50;99.90;;;;;;5119794;27;1003;-67
2022/11/09 02:26:38;;;;;;;;;;;11.40;99.90;;;;;;5119480;27;1044;-67
2022/11/09 02:29:06;;;;;;;;;;;11.40;99.90;;;;;;5102596;27;1091;-67
2022/11/09 02:31:34;;;;;;;;;;;11.50;99.90;;;;;;5085082;27;1603;-67
2022/11/09 02:34:03;;;;;;;;;;;11.50;99.90;;;;;;5083747;27;1127;-68
2022/11/09 02:36:28;;;;;;;;;;;11.50;99.90;;;;;;5102358;27;974;-67
2022/11/09 02:38:55;;;;;;;;;;;11.40;99.90;;;;;;5102980;27;1960;-67
2022/11/09 02:41:22;;;;;;;;;;;11.40;99.90;;;;;;5118773;27;1029;-67
2022/11/09 02:43:49;;;;;;;;;;;11.40;99.90;;;;;;5120480;27;1022;-68
2022/11/09 02:46:24;;;;;;;;;;;11.50;99.90;;;;;;5101862;27;1170;-68
2022/11/09 02:48:49;;;;;;;;;;;11.50;99.90;;;;;;5101841;27;1031;-68
2022/11/09 02:51:15;;;;;;;;;;;11.50;99.90;;;;;;5120152;27;1175;-67
2022/11/09 02:53:43;;;;;;;;;;;11.50;99.90;;;;;;5119723;27;1012;-67
2022/11/09 02:56:08;;;;;;;;;;;11.50;99.90;;;;;;5102094;27;1083;-68
2022/11/09 02:58:34;;;;;;;;;;;11.50;99.90;;;;;;5101433;27;1965;-67
2022/11/09 03:01:00;;;;;;;;;;;11.60;99.90;;;;;;5101110;27;1052;-67
2022/11/09 03:03:25;;;;;;;;;;;11.60;99.90;;;;;;5119539;27;1040;-67
2022/11/09 03:05:51;;;;;;;;;;;11.60;99.90;;;;;;5120344;27;1496;-68
2022/11/09 03:08:17;;;;;;;;;;;11.60;99.90;;;;;;5119225;27;1093;-67
2022/11/09 03:10:44;;;;;;;;;;;11.60;99.90;;;;;;5102021;27;1083;-66
2022/11/09 03:13:10;;;;;;;;;;;11.60;99.90;;;;;;5117815;27;1505;-67
2022/11/09 03:15:37;;;;;;;;;;;11.60;99.90;;;;;;5119940;27;1063;-67
2022/11/09 03:18:05;;;;;;;;;;;11.70;99.90;;;;;;5118238;27;1986;-68
2022/11/09 03:20:30;;;;;;;;;;;11.70;99.90;;;;;;5119653;27;1133;-67
2022/11/09 03:22:58;;;;;;;;;;;11.60;99.90;;;;;;5118507;27;1067;-67
2022/11/09 03:25:24;;;;;;;;;;;11.60;99.90;;;;;;5101752;27;1004;-67
2022/11/09 03:27:50;;;;;;;;;;;11.60;99.90;;;;;;5117516;27;1055;-67
2022/11/09 03:30:17;;;;;;;;;;;11.60;99.90;;;;;;5118244;27;1384;-67
2022/11/09 03:32:43;;;;;;;;;;;11.60;99.90;;;;;;5118804;27;1055;-67
2022/11/09 03:35:09;;;;;;;;;;;11.60;99.90;;;;;;5109133;27;1079;-67
2022/11/09 03:37:35;;;;;;;;;;;11.60;99.90;;;;;;5083345;27;1941;-67
2022/11/09 03:40:02;;;;;;;;;;;11.60;99.90;;;;;;5101346;27;970;-67
2022/11/09 03:42:28;;;;;;;;;;;11.60;99.90;;;;;;5101281;27;1039;-67
2022/11/09 03:44:54;;;;;;;;;;;11.60;99.90;;;;;;5116939;27;1024;-67
2022/11/09 03:47:19;;;;;;;;;;;11.60;99.90;;;;;;5120146;27;1037;-67
2022/11/09 03:49:45;;;;;;;;;;;11.60;99.90;;;;;;5118345;27;1024;-67
2022/11/09 03:52:10;;;;;;;;;;;11.60;99.90;;;;;;5119071;27;1283;-67
2022/11/09 03:54:36;;;;;;;;;;;11.60;99.90;;;;;;5119678;27;1077;-68
2022/11/09 03:57:02;;;;;;;;;;;11.60;99.90;;;;;;5118649;27;1060;-68
2022/11/09 03:59:27;;;;;;;;;;;11.60;99.90;;;;;;5118880;27;1971;-67
2022/11/09 04:01:53;;;;;;;;;;;11.60;99.90;;;;;;5118737;27;1105;-67
2022/11/09 04:04:18;;;;;;;;;;;11.50;99.90;;;;;;5118636;27;1272;-67
2022/11/09 04:06:44;;;;;;;;;;;11.60;99.90;;;;;;5119652;27;1114;-67
2022/11/09 04:09:10;;;;;;;;;;;11.60;99.90;;;;;;5119009;27;1020;-67
2022/11/09 04:11:35;;;;;;;;;;;11.70;99.90;;;;;;5099712;27;1333;-67
2022/11/09 04:14:01;;;;;;;;;;;11.70;99.90;;;;;;5118684;27;1087;-67
2022/11/09 04:16:27;;;;;;;;;;;11.70;99.90;;;;;;5100964;27;1137;-67
2022/11/09 04:18:52;;;;;;;;;;;11.70;99.90;;;;;;5099527;27;1922;-67
2022/11/09 04:21:18;;;;;;;;;;;11.70;99.90;;;;;;5119116;27;1028;-67
2022/11/09 04:23:44;;;;;;;;;;;11.70;99.90;;;;;;5119026;27;978;-67
2022/11/09 04:26:09;;;;;;;;;;;11.70;99.90;;;;;;5118503;27;1050;-67
2022/11/09 04:28:35;;;;;;;;;;;11.70;99.90;;;;;;5117820;27;969;-67
2022/11/09 04:31:01;;;;;;;;;;;11.60;99.90;;;;;;5118997;27;1442;-67
2022/11/09 04:33:26;;;;;;;;;;;11.50;99.90;;;;;;5118116;27;1087;-67
2022/11/09 04:35:52;;;;;;;;;;;11.60;99.90;;;;;;5119014;27;957;-67
2022/11/09 04:38:18;;;;;;;;;;;11.50;99.90;;;;;;5118094;27;1906;-67
2022/11/09 04:40:43;;;;;;;;;;;11.50;99.90;;;;;;5117846;27;1063;-67
2022/11/09 04:43:11;;;;;;;;;;;11.50;99.90;;;;;;5119178;28;1031;-67
2022/11/09 04:45:36;;;;;;;;;;;11.40;99.90;;;;;;5117144;28;1091;-67
2022/11/09 04:48:03;;;;;;;;;;;11.40;99.90;;;;;;5117504;28;1158;-67
2022/11/09 04:50:29;;;;;;;;;;;11.40;99.90;;;;;;5119078;28;1031;-67
2022/11/09 04:53:02;;;;;;;;;;;11.50;99.90;;;;;;5118645;28;1216;-67
2022/11/09 04:55:28;;;;;;;;;;;11.40;99.90;;;;;;5116994;28;1100;-67
2022/11/09 04:57:53;;;;;;;;;;;11.60;99.90;;;;;;5118711;28;1906;-67
2022/11/09 05:00:19;;;;;;;;;;;11.50;99.90;;;;;;5119037;28;1012;-67
2022/11/09 05:02:45;;;;;;;;;;;11.60;99.90;;;;;;5118165;28;1075;-67
2022/11/09 05:05:10;;;;;;;;;;;11.60;99.90;;;;;;5117347;28;1303;-67
2022/11/09 05:07:36;;;;;;;;;;;11.60;99.90;;;;;;5116571;28;1028;-67
2022/11/09 05:10:01;;;;;;;;;;;11.60;99.90;;;;;;5118446;28;1063;-67
2022/11/09 05:12:27;;;;;;;;;;;11.60;99.90;;;;;;5118191;28;1151;-67
2022/11/09 05:14:53;;;;;;;;;;;11.70;99.90;;;;;;5118072;28;1040;-67
2022/11/09 05:17:18;;;;;;;;;;;11.70;99.90;;;;;;5118052;28;1962;-67
2022/11/09 05:19:44;;;;;;;;;;;11.80;99.90;;;;;;5118020;28;1138;-67
2022/11/09 05:24:54;;;;;;;;;;;11.80;99.90;;;;;;5099734;28;970;-67
2022/11/09 05:27:19;;;;;;;;;;;11.80;99.90;;;;;;5118857;28;1020;-67
2022/11/09 05:29:45;;;;;;;;;;;11.80;99.90;;;;;;5117075;28;1274;-67
2022/11/09 05:32:11;;;;;;;;;;;11.80;99.90;;;;;;5118559;28;1108;-67
2022/11/09 05:34:36;;;;;;;;;;;11.80;99.90;;;;;;5118042;28;1021;-67
2022/11/09 05:37:02;;;;;;;;;;;11.80;99.90;;;;;;5099425;28;1171;-67
2022/11/09 05:39:27;;;;;;;;;;;11.70;99.90;;;;;;5117874;28;1961;-67
2022/11/09 05:41:53;;;;;;;;;;;11.70;99.90;;;;;;5118184;28;1096;-67
2022/11/09 05:44:37;;;;;;;;;;;11.70;99.90;;;;;;5113898;28;1319;-67
2022/11/09 05:47:02;;;;;;;;;;;11.80;99.90;;;;;;5118326;28;977;-67
2022/11/09 05:49:28;;;;;;;;;;;11.90;99.90;;;;;;5117578;27;972;-67
2022/11/09 05:51:53;;;;;;;;;;;11.90;99.90;;;;;;5121203;27;1304;-67
2022/11/09 05:54:19;;;;;;;;;;;11.90;99.90;;;;;;5121852;27;1036;-67
2022/11/09 05:56:45;;;;;;;;;;;11.90;99.90;;;;;;5120533;27;1051;-67
2022/11/09 05:59:10;;;;;;;;;;;12.00;99.90;;;;;;5120706;27;1967;-67
2022/11/09 06:01:36;;;;;;;;;;;11.90;99.90;;;;;;5122131;27;1063;-67
2022/11/09 06:04:02;;;;;;;;;;;11.90;99.90;;;;;;5120968;27;1448;-67
2022/11/09 06:06:28;;;;;;;;;;;12.00;99.90;;;;;;5121384;27;1055;-67
2022/11/09 06:08:54;;;;;;;;;;;12.00;99.90;;;;;;5121073;27;1091;-68
2022/11/09 06:11:20;;;;;;;;;;;12.00;99.90;;;;;;5120195;27;1295;-67
2022/11/09 06:13:45;;;;;;;;;;;12.00;99.90;;;;;;5102673;27;1019;-67
2022/11/09 06:16:11;;;;;;;;;;;11.90;99.90;;;;;;5121638;27;1229;-67
2022/11/09 06:18:36;;;;;;;;;;;11.90;99.90;;;;;;5118755;27;1984;-67
2022/11/09 06:21:03;;;;;;;;;;;11.90;99.90;;;;;;5121430;27;1021;-68
2022/11/09 06:23:29;;;;;;;;;;;11.90;99.90;;;;;;5120795;27;1019;-67
2022/11/09 06:25:59;;;;;;;;;;;11.80;99.90;;;;;;5120452;27;976;-67
2022/11/09 06:28:25;;;;;;;;;;;11.80;99.90;;;;;;5121257;27;1055;-67
2022/11/09 06:30:51;;;;;;;;;;;11.80;99.90;;;;;;5120718;27;1499;-67
2022/11/09 06:33:16;;;;;;;;;;;11.70;99.90;;;;;;5119821;27;1107;-67
2022/11/09 06:35:42;;;;;;;;;;;11.70;99.90;;;;;;5121056;27;965;-67
2022/11/09 06:38:08;;;;;;;;;;;11.70;99.90;;;;;;5120977;27;1984;-67
2022/11/09 06:40:35;;;;;;;;;;;11.70;99.90;;;;;;5119269;27;1029;-67
2022/11/09 06:43:02;;;;;;;;;;;11.70;99.90;;;;;;5120442;27;1080;-67
2022/11/09 06:45:28;;;;;;;;;;;11.60;99.90;;;;;;5121209;27;977;-67
2022/11/09 06:47:54;;;;;;;;;;;11.70;99.90;;;;;;5101198;27;1017;-67
2022/11/09 06:50:20;;;;;;;;;;;11.60;99.90;;;;;;5120035;27;1058;-67
2022/11/09 06:52:45;;;;;;;;;;;11.60;99.90;;;;;;5120584;27;1321;-67
2022/11/09 06:55:11;;;;;;;;;;;11.60;99.90;;;;;;5119756;27;982;-67
2022/11/09 06:57:37;;;;;;;;;;;11.50;99.90;;;;;;5120787;27;1909;-67
2022/11/09 07:00:03;;;;;;;;;;;11.50;99.90;;;;;;5119772;27;1010;-67
2022/11/09 07:02:30;;;;;;;;;;;11.50;99.90;;;;;;5118824;27;974;-67
2022/11/09 07:04:55;;;;;;;;;;;11.50;99.90;;;;;;5120447;27;1516;-67
2022/11/09 07:07:21;;;;;;;;;;;11.50;99.90;;;;;;5118464;27;1049;-67
2022/11/09 07:09:47;;;;;;;;;;;11.40;99.90;;;;;;5120205;27;1062;-67
2022/11/09 07:12:12;;;;;;;;;;;11.40;99.90;;;;;;5120826;27;1397;-67
2022/11/09 07:14:38;;;;;;;;;;;11.40;99.90;;;;;;5120063;27;1000;-68
2022/11/09 07:17:03;;;;;;;;;;;11.50;99.90;;;;;;5117978;27;1275;-67
2022/11/09 07:19:29;;;;;;;;;;;11.50;99.90;;;;;;5119935;27;1910;-68
2022/11/09 07:21:55;;;;;;;;;;;11.50;99.90;;;;;;5119570;27;957;-67
2022/11/09 07:24:21;;;;;;;;;;;11.60;99.90;;;;;;5118999;27;1060;-68
2022/11/09 07:26:47;;;;;;;;;;;11.60;99.90;;;;;;5119620;27;1282;-67
2022/11/09 07:29:13;;;;;;;;;;;11.60;99.90;;;;;;5118810;27;1068;-67
2022/11/09 07:31:39;;;;;;;;;;;11.60;99.90;;;;;;5119019;27;1358;-67
2022/11/09 07:34:05;;;;;;;;;;;11.60;99.90;;;;;;5119119;27;1016;-67
2022/11/09 07:36:31;;;;;;;;;;;11.60;99.90;;;;;;5119250;27;1016;-68
2022/11/09 07:38:57;;;;;;;;;;;11.60;99.90;;;;;;5117991;27;1964;-68
2022/11/09 07:41:23;;;;;;;;;;;11.60;99.90;;;;;;5119467;27;1028;-68
2022/11/09 07:43:48;;;;;;;;;;;11.70;99.90;;;;;;5118221;27;1011;-67
2022/11/09 07:46:14;;;;;;;;;;;11.60;99.90;;;;;;5119314;27;992;-67
2022/11/09 07:48:40;;;;;;;;;;;11.60;99.90;;;;;;5117868;27;995;-67
2022/11/09 07:51:05;;;;;;;;;;;11.70;99.90;;;;;;5117270;27;1107;-67
2022/11/09 07:53:31;;;;;;;;;;;11.70;99.90;;;;;;5100582;28;1508;-67
2022/11/09 07:55:58;;;;;;;;;;;11.70;99.90;;;;;;5080861;28;1018;-67
2022/11/09 07:58:23;;;;;;;;;;;11.70;99.90;;;;;;5098370;28;1901;-67
2022/11/09 08:00:49;;;;;;;;;;;11.70;99.90;;;;;;5098665;28;997;-67
2022/11/09 08:03:16;;;;;;;;;;;11.70;99.90;;;;;;5081012;28;1109;-67
2022/11/09 08:05:42;;;;;;;;;;;11.70;99.90;;;;;;5098883;28;1449;-67
2022/11/09 08:08:09;;;;;;;;;;;11.80;99.90;;;;;;5098463;28;1047;-67
2022/11/09 08:10:35;;;;;;;;;;;11.80;99.90;;;;;;5098963;28;1183;-67
2022/11/09 08:13:02;;;;;;;;;;;11.80;99.90;;;;;;5099257;28;1509;-67
2022/11/09 08:15:28;;;;;;;;;;;11.80;99.90;;;;;;5102093;28;1085;-66
2022/11/09 08:17:57;;;;;;;;;;;11.80;99.90;;;;;;5098060;28;1971;-67
2022/11/09 08:20:23;;;;;;;;;;;11.90;99.90;;;;;;5098650;28;1050;-67
2022/11/09 08:22:48;;;;;;;;;;;11.90;99.90;;;;;;5098194;28;1025;-67
2022/11/09 08:25:14;;;;;;;;;;;12.00;99.90;;;;;;5097377;28;964;-67
2022/11/09 08:27:40;;;;;;;;;;;12.00;99.90;;;;;;5099232;28;1121;-67
2022/11/09 08:30:07;;;;;;;;;;;12.10;99.90;;;;;;5098800;28;1315;-67
2022/11/09 08:32:32;;;;;;;;;;;12.10;99.90;;;;;;5097764;28;1016;-67
2022/11/09 08:34:58;;;;;;;;;;;12.10;99.90;;;;;;5098252;28;1006;-67
2022/11/09 08:37:24;;;;;;;;;;;12.10;99.90;;;;;;5098134;28;1214;-67
2022/11/09 08:39:49;;;;;;;;;;;12.20;99.90;;;;;;5079221;28;1995;-67
2022/11/09 08:42:15;;;;;;;;;;;12.20;99.90;;;;;;5101357;28;1144;-67
2022/11/09 08:44:40;;;;;;;;;;;12.20;99.90;;;;;;5101497;28;1136;-67
2022/11/09 08:47:06;;;;;;;;;;;12.20;99.90;;;;;;5099804;28;1076;-67
2022/11/09 08:49:32;;;;;;;;;;;12.30;99.90;;;;;;5101871;28;1077;-67
2022/11/09 08:51:57;;;;;;;;;;;12.20;99.90;;;;;;5098089;28;1018;-67
2022/11/09 08:54:23;;;;;;;;;;;12.20;99.90;;;;;;5098033;28;1001;-67
2022/11/09 08:56:48;;;;;;;;;;;12.30;99.90;;;;;;5102875;28;1078;-67
2022/11/09 08:59:14;;;;;;;;;;;12.30;99.90;;;;;;5102608;28;1913;-66
2022/11/09 09:01:40;;;;;;;;;;;12.30;99.90;;;;;;5081939;28;1076;-67
2022/11/09 09:04:05;;;;;;;;;;;12.40;99.90;;;;;;5083395;28;1298;-68
2022/11/09 09:06:31;;;;;;;;;;;12.40;99.90;;;;;;5102184;28;1135;-68
2022/11/09 09:08:57;;;;;;;;;;;12.40;99.90;;;;;;5101507;28;1080;-68
2022/11/09 09:11:22;;;;;;;;;;;12.40;99.90;;;;;;5083123;28;1254;-68
2022/11/09 09:13:48;;;;;;;;;;;12.40;99.90;;;;;;5100531;28;871;-68
2022/11/09 09:16:14;;;;;;;;;;;12.50;99.90;;;;;;5107809;28;1279;-68
2022/11/09 09:18:40;;;;;;;;;;;12.50;99.90;;;;;;5108028;28;1918;-68
2022/11/09 09:21:06;;;;;;;;;;;12.60;99.90;;;;;;5097865;28;1027;-68
2022/11/09 09:23:32;;;;;;;;;;;12.60;99.90;;;;;;5105474;28;986;-68
2022/11/09 09:25:58;;;;;;;;;;;12.60;99.90;;;;;;5107730;27;1178;-68
2022/11/09 09:28:23;;;;;;;;;;;12.70;99.90;;;;;;5110392;27;1075;-68
2022/11/09 09:30:49;;;;;;;;;;;12.70;99.90;;;;;;5110550;27;1484;-68
2022/11/09 09:33:15;;;;;;;;;;;12.70;99.90;;;;;;5105281;27;1040;-68
2022/11/09 09:35:40;;;;;;;;;;;12.80;99.90;;;;;;5111985;27;1054;-68
2022/11/09 09:38:06;;;;;;;;;;;12.80;99.90;;;;;;5107515;27;1914;-68
2022/11/09 09:40:35;;;;;;;;;;;13.00;99.90;;;;;;5083697;28;1028;-68
2022/11/09 09:43:02;;;;;;;;;;;13.20;99.90;;;;;;5107969;27;1070;-68
2022/11/09 09:45:30;;;;;;;;;;;13.50;99.90;;;;;;5103128;27;958;-68
2022/11/09 09:47:57;;;;;;;;;;;13.90;99.90;;;;;;5106191;27;1098;-69
2022/11/09 09:50:25;;;;;;;;;;;14.10;99.90;;;;;;5111626;27;1032;-68
2022/11/09 09:52:55;;;;;;;;;;;14.40;99.90;;;;;;5084892;27;1224;-68
2022/11/09 09:55:20;;;;;;;;;;;14.60;99.90;;;;;;5103762;27;1071;-68
2022/11/09 09:57:49;;;;;;;;;;;14.90;99.90;;;;;;5103647;27;1918;-69
2022/11/09 10:00:19;;;;;;;;;;;15.10;99.90;;;;;;5106187;27;984;-69
2022/11/09 10:02:45;;;;;;;;;;;15.20;99.90;;;;;;5109565;27;966;-68
2022/11/09 10:05:13;;;;;;;;;;;15.20;99.90;;;;;;5109035;27;1318;-68
2022/11/09 10:07:56;;;;;;;;;;;15.40;99.90;;;;;;5083021;28;1008;-69
2022/11/09 10:10:34;;;;;;;;;;;15.60;99.90;;;;;;5100751;28;1020;-69
2022/11/09 10:13:18;;;;;;;;;;;15.40;99.90;;;;;;5102380;27;1288;-69
2022/11/09 10:15:53;;;;;;;;;;;15.30;99.90;;;;;;5108007;27;1086;-70
2022/11/09 10:18:24;;;;;;;;;;;15.10;99.90;;;;;;5102117;28;1979;-69
2022/11/09 10:20:57;;;;;;;;;;;15.20;99.90;;;;;;5087499;27;1102;-69
2022/11/09 10:23:37;;;;;;;;;;;15.60;99.90;;;;;;5107937;27;1151;-69
2022/11/09 10:26:06;;;;;;;;;;;15.60;99.90;;;;;;5104327;27;1143;-69
2022/11/09 10:28:35;;;;;;;;;;;15.80;99.90;;;;;;5110035;27;977;-69
2022/11/09 10:31:01;;;;;;;;;;;15.50;99.90;;;;;;5106442;27;1464;-69
2022/11/09 10:33:27;;;;;;;;;;;15.70;99.90;;;;;;5108986;27;974;-69
2022/11/09 10:35:52;;;;;;;;;;;16.40;99.90;;;;;;5108322;27;1099;-70
2022/11/09 10:38:21;;;;;;;;;;;16.70;99.90;;;;;;5103435;27;1929;-70
2022/11/09 10:41:13;;;;;;;;;;;17.10;99.90;;;;;;5107084;27;1187;-70
2022/11/09 10:43:57;;;;;;;;;;;16.50;99.90;;;;;;5102636;27;1087;-69
2022/11/09 10:47:00;;;;;;;;;;;16.00;99.90;;;;;;5107966;27;984;-69
2022/11/09 10:49:44;;;;;;;;;;;15.50;99.90;;;;;;5104369;27;1099;-70
2022/11/09 10:52:29;;;;;;;;;;;14.70;99.90;;;;;;5103236;27;1253;-70
2022/11/09 10:55:16;;;;;;;;;;;14.20;99.90;;;;;;5105002;27;1001;-69
2022/11/09 10:58:04;;;;;;;;;;;14.10;99.90;;;;;;5104883;27;1979;-69
2022/11/09 11:01:00;;;;;;;;;;;13.70;99.90;;;;;;5106618;27;1036;-69
2022/11/09 11:03:44;;;;;;;;;;;13.50;99.90;;;;;;5091589;27;1357;-69
2022/11/09 11:06:30;;;;;;;;;;;14.00;99.90;;;;;;5103886;27;1007;-69
2022/11/09 11:09:17;;;;;;;;;;;14.30;99.90;;;;;;5107480;27;1021;-70
2022/11/09 11:12:15;;;;;;;;;;;14.50;99.90;;;;;;5106162;27;1325;-69
2022/11/09 11:14:59;;;;;;;;;;;14.30;99.90;;;;;;5100734;27;958;-69
2022/11/09 11:17:44;;;;;;;;;;;13.90;99.90;;;;;;5107318;27;2002;-70
2022/11/09 11:20:30;;;;;;;;;;;13.60;99.90;;;;;;5107763;27;1036;-69
2022/11/09 11:23:16;;;;;;;;;;;13.40;99.90;;;;;;5108200;27;1020;-70
2022/11/09 11:26:18;;;;;;;;;;;13.30;99.90;;;;;;5106329;27;996;-70
2022/11/09 11:29:09;;;;;;;;;;;13.30;99.90;;;;;;5103970;27;973;-69
2022/11/09 11:31:54;;;;;;;;;;;13.40;99.90;;;;;;5108000;27;1477;-69
2022/11/09 11:34:39;;;;;;;;;;;13.70;99.90;;;;;;5108757;27;956;-69
2022/11/09 11:37:34;;;;;;;;;;;13.70;99.90;;;;;;5105608;27;976;-69
2022/11/09 11:40:21;;;;;;;;;;;13.60;99.90;;;;;;5106023;27;1009;-69
2022/11/09 11:43:19;;;;;;;;;;;13.50;99.90;;;;;;5105364;27;975;-69
2022/11/09 11:46:12;;;;;;;;;;;13.50;99.90;;;;;;5106485;27;1014;-69
2022/11/09 11:49:03;;;;;;;;;;;13.50;99.90;;;;;;5108335;27;1055;-69
2022/11/09 11:51:54;;;;;;;;;;;13.40;99.90;;;;;;5102777;27;1167;-69
2022/11/09 11:54:46;;;;;;;;;;;13.40;99.90;;;;;;5107660;27;1064;-69
2022/11/09 11:57:39;;;;;;;;;;;13.50;99.90;;;;;;5104975;27;1030;-70
2022/11/09 12:00:23;;;;;;;;;;;13.40;99.90;;;;;;5105761;27;1148;-69
2022/11/09 12:03:18;;;;;;;;;;;13.40;99.90;;;;;;5100395;27;1223;-69
2022/11/09 12:06:03;;;;;;;;;;;13.40;99.90;;;;;;5085374;28;1117;-69
2022/11/09 12:08:54;;;;;;;;;;;13.30;99.90;;;;;;5101109;27;1211;-69
2022/11/09 12:11:39;;;;;;;;;;;13.40;99.90;;;;;;5083387;28;1277;-69
2022/11/09 12:14:31;;;;;;;;;;;13.70;99.90;;;;;;5090087;27;1108;-69
2022/11/09 12:17:24;;;;;;;;;;;14.50;99.90;;;;;;5084789;27;1273;-69
2022/11/09 12:20:08;;;;;;;;;;;15.40;99.90;;;;;;5104225;27;1025;-70
2022/11/09 12:23:07;;;;;;;;;;;15.40;99.90;;;;;;5103995;27;1020;-69
2022/11/09 12:25:52;;;;;;;;;;;15.00;99.90;;;;;;5106659;27;1047;-69
2022/11/09 12:28:37;;;;;;;;;;;14.30;99.90;;;;;;5106859;27;974;-70
2022/11/09 12:31:34;;;;;;;;;;;13.80;99.90;;;;;;5107362;28;1513;-69
2022/11/09 12:34:31;;;;;;;;;;;13.60;99.90;;;;;;5100525;28;946;-69
2022/11/09 12:37:18;;;;;;;;;;;13.50;99.90;;;;;;5100637;28;1156;-69
2022/11/09 12:40:12;;;;;;;;;;;13.40;99.90;;;;;;5101365;27;1258;-70
2022/11/09 12:42:57;;;;;;;;;;;13.40;99.90;;;;;;5105835;27;906;-69
2022/11/09 12:45:42;;;;;;;;;;;13.30;99.90;;;;;;5102659;28;1059;-69
2022/11/09 12:48:29;;;;;;;;;;;13.30;99.90;;;;;;5102939;28;1000;-69
2022/11/09 12:51:14;;;;;;;;;;;13.30;99.90;;;;;;5104226;28;1316;-69
2022/11/09 12:53:59;;;;;;;;;;;13.30;99.90;;;;;;5100572;28;1013;-69
2022/11/09 12:56:50;;;;;;;;;;;13.30;99.90;;;;;;5088375;28;2062;-69
2022/11/09 12:59:36;;;;;;;;;;;13.30;99.90;;;;;;5104446;27;1914;-69
2022/11/09 13:02:29;;;;;;;;;;;13.30;99.90;;;;;;5110001;27;1031;-69
2022/11/09 13:05:32;;;;;;;;;;;13.40;99.90;;;;;;5111013;27;1259;-69
2022/11/09 13:08:18;;;;;;;;;;;13.40;99.90;;;;;;5112347;27;969;-69
2022/11/09 13:11:17;;;;;;;;;;;13.60;99.90;;;;;;5104874;27;1044;-69
2022/11/09 13:14:20;;;;;;;;;;;13.70;99.90;;;;;;5110303;27;981;-69
2022/11/09 13:17:20;;;;;;;;;;;13.50;99.90;;;;;;5104698;27;1253;-69
2022/11/09 13:20:23;;;;;;;;;;;13.40;99.90;;;;;;5108195;27;1189;-69
2022/11/09 13:23:23;;;;;;;;;;;13.30;99.90;;;;;;5106249;27;977;-69
2022/11/09 13:26:20;;;;;;;;;;;13.30;99.90;;;;;;5109091;27;1087;-69
2022/11/09 13:29:07;;;;;;;;;;;13.20;99.90;;;;;;5104289;27;1089;-69
2022/11/09 13:31:57;;;;;;;;;;;13.10;99.90;;;;;;5105167;27;1124;-69
2022/11/09 13:34:43;;;;;;;;;;;12.90;99.90;;;;;;5104601;27;1095;-69
2022/11/09 13:37:39;;;;;;;;;;;12.80;99.90;;;;;;5106941;27;1060;-69
2022/11/09 13:40:29;;;;;;;;;;;12.70;99.90;;;;;;5104264;27;1088;-69
2022/11/09 13:43:14;;;;;;;;;;;12.70;99.90;;;;;;5105965;27;1231;-70
2022/11/09 13:45:59;;;;;;;;;;;12.70;99.90;;;;;;5107075;27;1082;-70
2022/11/09 13:48:44;;;;;;;;;;;12.20;99.90;;;;;;5109881;27;1062;-69
2022/11/09 13:51:33;;;;;;;;;;;12.00;99.90;;;;;;5107987;27;1298;-69
2022/11/09 13:54:29;;;;;;;;;;;11.70;99.90;;;;;;5120958;27;1055;-70
2022/11/09 13:57:15;;;;;;;;;;;11.90;99.90;;;;;;5102230;27;1102;-69
2022/11/09 14:00:01;;;;;;;;;;;12.00;99.90;;;;;;5121858;27;1969;-69
2022/11/09 14:02:53;;;;;;;;;;;12.30;99.90;;;;;;5121141;27;1032;-69
2022/11/09 14:05:38;;;;;;;;;;;12.40;99.90;;;;;;5122359;27;1457;-69
2022/11/09 14:08:25;;;;;;;;;;;12.50;99.90;;;;;;5122123;27;1020;-69
2022/11/09 14:11:38;;;;;;;;;;;12.30;99.90;;;;;;5119051;27;1247;-69
2022/11/09 14:14:30;;;;;;;;;;;12.40;99.90;;;;;;5121636;27;989;-69
2022/11/09 14:17:18;;;;;;;;;;;12.30;99.90;;;;;;5118962;27;1248;-69
2022/11/09 14:20:14;;;;;;;;;;;12.50;99.90;;;;;;5119453;27;1906;-69
2022/11/09 14:22:59;;;;;;;;;;;12.60;99.90;;;;;;5120762;27;1016;-69
2022/11/09 14:25:44;;;;;;;;;;;12.60;99.90;;;;;;5120866;27;1063;-68
2022/11/09 14:28:30;;;;;;;;;;;12.60;99.90;;;;;;5121295;27;916;-66
2022/11/09 14:31:21;;;;;;;;;;;12.60;99.90;;;;;;5120974;27;1497;-67
2022/11/09 14:34:06;;;;;;;;;;;12.60;99.90;;;;;;5121418;27;1067;-68
2022/11/09 14:36:50;;;;;;;;;;;12.60;99.90;;;;;;5120692;27;957;-69
2022/11/09 14:39:36;;;;;;;;;;;12.50;99.90;;;;;;5119672;27;1971;-69
2022/11/09 14:42:21;;;;;;;;;;;12.50;99.90;;;;;;5121290;27;1079;-69
2022/11/09 14:45:12;;;;;;;;;;;12.50;99.90;;;;;;5120484;27;1008;-69
2022/11/09 14:47:57;;;;;;;;;;;12.40;99.90;;;;;;5120131;27;1068;-69
2022/11/09 14:50:42;;;;;;;;;;;12.50;99.90;;;;;;5120542;27;1016;-68
2022/11/09 14:53:35;;;;;;;;;;;12.60;99.90;;;;;;5110084;27;1138;-67
2022/11/09 14:56:20;;;;;;;;;;;12.40;99.90;;;;;;5106320;27;1017;-67
2022/11/09 14:59:05;;;;;;;;;;;12.40;99.90;;;;;;5104494;27;2001;-68
2022/11/09 15:02:01;;;;;;;;;;;12.40;99.90;;;;;;5110517;27;842;-68
2022/11/09 15:05:00;;;;;;;;;;;12.10;99.90;;;;;;5107503;27;1504;-68